Time;durP1;ratioP1;P1;durP2;ratioP2;P2;SDS_P1;SDS_P2;PMS_P1;PMS_P2;Temp;Humidity;BMP_temperature;BMP_pressure;BME280_temperature;BME280_humidity;BME280_pressure;Samples;Min_cycle;Max_cycle;Signal;HPM_P1;HPM_P2
2023/06/14 00:00:49;;;;;;;1.13;1.10;;;15.50;55.70;;;;;;5057407;28;20462;-78
2023/06/14 00:03:21;;;;;;;1.38;1.17;;;15.50;55.80;;;;;;5065565;28;20055;-78
2023/06/14 00:05:48;;;;;;;0.82;0.82;;;15.50;55.80;;;;;;5080086;28;20080;-78
2023/06/14 00:08:14;;;;;;;1.38;1.25;;;15.40;55.90;;;;;;5088726;28;20012;-77
2023/06/14 00:10:41;;;;;;;1.10;1.00;;;15.40;56.00;;;;;;5088032;28;20016;-78
2023/06/14 00:13:14;;;;;;;1.30;1.20;;;15.40;56.00;;;;;;5070013;28;20014;-77
2023/06/14 00:15:48;;;;;;;1.00;0.90;;;15.30;56.00;;;;;;5069830;28;20028;-77
2023/06/14 00:18:14;;;;;;;1.23;1.05;;;15.20;56.30;;;;;;5046094;28;20029;-78
2023/06/14 00:20:44;;;;;;;0.90;0.90;;;15.20;56.90;;;;;;5060194;28;20040;-78
2023/06/14 00:23:18;;;;;;;0.82;0.82;;;15.20;57.00;;;;;;5060162;28;20028;-78
2023/06/14 00:25:47;;;;;;;1.10;1.10;;;15.10;56.90;;;;;;5076140;28;20060;-78
2023/06/14 00:28:13;;;;;;;0.88;0.88;;;15.10;56.80;;;;;;5073345;28;20452;-79
2023/06/14 00:30:46;;;;;;;1.00;1.00;;;15.00;56.90;;;;;;5085199;28;20032;-77
2023/06/14 00:33:16;;;;;;;1.15;1.15;;;14.90;57.30;;;;;;5076540;28;20031;-77
2023/06/14 00:35:45;;;;;;;0.98;0.98;;;15.00;57.90;;;;;;5063842;28;20040;-78
2023/06/14 00:38:11;;;;;;;0.75;0.75;;;14.90;58.10;;;;;;5040984;28;20044;-77
2023/06/14 00:40:36;;;;;;;1.33;1.00;;;14.80;58.30;;;;;;5059829;28;20108;-78
2023/06/14 00:43:05;;;;;;;1.02;0.93;;;14.80;58.60;;;;;;5060947;28;20045;-77
2023/06/14 00:45:41;;;;;;;0.80;0.80;;;14.70;58.80;;;;;;5046788;28;20089;-78
2023/06/14 00:48:11;;;;;;;1.33;1.23;;;14.70;59.20;;;;;;5039788;28;20029;-77
2023/06/14 00:50:41;;;;;;;1.17;1.10;;;14.60;59.20;;;;;;5056656;28;20111;-77
2023/06/14 00:53:15;;;;;;;1.73;1.20;;;14.60;59.70;;;;;;5065777;28;20031;-77
2023/06/14 00:55:41;;;;;;;1.45;1.27;;;14.50;60.40;;;;;;5072718;28;20021;-77
2023/06/14 00:58:11;;;;;;;0.98;0.93;;;14.50;60.10;;;;;;5042736;28;20020;-78
2023/06/14 01:00:42;;;;;;;0.80;0.80;;;14.50;60.40;;;;;;5058471;28;20112;-79
2023/06/14 01:03:22;;;;;;;;;;;;;;;;;;;;;
2023/06/14 01:06:08;;;;;;;0.98;0.98;;;14.40;60.60;;;;;;5077397;28;20050;-77
2023/06/14 01:08:58;;;;;;;1.25;1.15;;;14.40;60.80;;;;;;5059049;28;20385;-78
2023/06/14 01:11:34;;;;;;;1.08;0.98;;;14.40;61.10;;;;;;5058645;28;20065;-78
2023/06/14 01:14:10;;;;;;;0.80;0.80;;;14.30;61.30;;;;;;5076713;28;20032;-78
2023/06/14 01:16:42;;;;;;;0.90;0.90;;;14.30;61.90;;;;;;5086288;28;20040;-77
2023/06/14 01:19:13;;;;;;;1.23;1.03;;;14.30;62.40;;;;;;5077988;28;20327;-77
2023/06/14 01:21:41;;;;;;;0.90;0.90;;;14.30;62.90;;;;;;5076299;28;20020;-77
2023/06/14 01:24:11;;;;;;;0.80;0.77;;;14.20;63.10;;;;;;5067170;28;20024;-78
2023/06/14 01:26:45;;;;;;;0.80;0.80;;;14.20;63.60;;;;;;5038750;28;20032;-78
2023/06/14 01:29:20;;;;;;;0.60;0.60;;;14.20;64.10;;;;;;5063322;28;20073;-77
2023/06/14 01:31:47;;;;;;;0.73;0.60;;;14.20;64.30;;;;;;5055396;28;20485;-78
2023/06/14 01:34:16;;;;;;;0.70;0.70;;;14.10;64.70;;;;;;5038310;28;20025;-78
2023/06/14 01:36:46;;;;;;;0.70;0.70;;;14.10;64.90;;;;;;5056653;28;20032;-78
2023/06/14 01:39:17;;;;;;;0.75;0.75;;;14.10;65.10;;;;;;5056572;28;20036;-77
2023/06/14 01:41:47;;;;;;;0.70;0.70;;;14.10;65.20;;;;;;5056763;28;20032;-78
2023/06/14 01:44:15;;;;;;;0.65;0.65;;;14.00;65.60;;;;;;5057659;28;20116;-78
2023/06/14 01:46:45;;;;;;;0.68;0.68;;;14.00;65.70;;;;;;5056983;28;20048;-77
2023/06/14 01:49:13;;;;;;;0.50;0.50;;;13.90;65.70;;;;;;5057880;28;20045;-77
2023/06/14 01:51:39;;;;;;;0.65;0.60;;;13.90;65.90;;;;;;5041774;28;20393;-78
2023/06/14 01:54:05;;;;;;;0.63;0.63;;;13.90;66.30;;;;;;5056696;28;20021;-78
2023/06/14 01:56:36;;;;;;;0.70;0.70;;;13.80;66.30;;;;;;5058290;28;20029;-77
2023/06/14 01:59:05;;;;;;;0.70;0.70;;;13.80;66.40;;;;;;5076306;28;20032;-77
2023/06/14 02:01:36;;;;;;;0.90;0.90;;;13.80;66.70;;;;;;5075642;28;20436;-78
2023/06/14 02:04:02;;;;;;;0.73;0.73;;;13.80;66.90;;;;;;5074564;28;20119;-78
2023/06/14 02:06:28;;;;;;;0.80;0.80;;;13.70;66.80;;;;;;5076612;28;20029;-77
2023/06/14 02:08:57;;;;;;;0.70;0.70;;;13.70;66.90;;;;;;5075018;28;20023;-77
2023/06/14 02:11:26;;;;;;;0.60;0.60;;;13.70;67.20;;;;;;5076306;28;20115;-77
2023/06/14 02:13:59;;;;;;;0.63;0.63;;;13.70;67.30;;;;;;5066285;28;20029;-78
2023/06/14 02:16:29;;;;;;;0.63;0.63;;;13.70;67.40;;;;;;5059177;28;20032;-78
2023/06/14 02:19:04;;;;;;;0.80;0.80;;;13.70;67.40;;;;;;5055176;28;20021;-77
2023/06/14 02:21:37;;;;;;;1.02;0.93;;;13.70;67.60;;;;;;5055794;28;20029;-77
2023/06/14 02:24:09;;;;;;;0.70;0.70;;;13.70;67.00;;;;;;5064434;28;20127;-77
2023/06/14 02:26:37;;;;;;;;;;;13.70;66.60;;;;;;5053365;28;20071;-77
2023/06/14 02:29:05;;;;;;;0.80;0.80;;;13.70;66.60;;;;;;5067751;28;19904;-77
2023/06/14 02:31:34;;;;;;;0.95;0.90;;;13.70;66.70;;;;;;5077187;28;20024;-77
2023/06/14 02:34:10;;;;;;;1.13;0.85;;;13.60;66.50;;;;;;5074289;28;20461;-78
2023/06/14 02:36:42;;;;;;;0.80;0.80;;;13.60;66.30;;;;;;5058619;28;20131;-76
2023/06/14 02:39:28;;;;;;;0.80;0.80;;;13.60;66.20;;;;;;5082108;28;20138;-77
2023/06/14 02:41:59;;;;;;;1.10;0.90;;;13.50;66.40;;;;;;5078793;28;20036;-77
2023/06/14 02:44:28;;;;;;;1.17;1.13;;;13.40;66.30;;;;;;5076744;28;20040;-76
2023/06/14 02:46:56;;;;;;;0.85;0.85;;;13.40;66.50;;;;;;5079593;28;20036;-76
2023/06/14 02:49:31;;;;;;;2.28;1.00;;;13.30;66.60;;;;;;5076421;28;20052;-77
2023/06/14 02:51:57;;;;;;;1.20;1.10;;;13.30;66.70;;;;;;5077492;28;20454;-77
2023/06/14 02:54:23;;;;;;;1.02;0.90;;;13.30;66.80;;;;;;5077534;28;20566;-78
2023/06/14 02:57:00;;;;;;;1.52;1.15;;;13.30;67.20;;;;;;5071186;28;20036;-76
2023/06/14 02:59:57;;;;;;;1.38;1.10;;;13.30;67.30;;;;;;5060089;28;20053;-78
2023/06/14 03:02:25;;;;;;;1.40;0.95;;;13.30;67.20;;;;;;5036907;28;20024;-78
2023/06/14 03:04:54;;;;;;;0.82;0.82;;;13.20;67.70;;;;;;5059628;28;20036;-77
2023/06/14 03:07:20;;;;;;;0.98;0.98;;;13.20;67.90;;;;;;5061139;28;20024;-77
2023/06/14 03:09:48;;;;;;;2.67;0.90;;;13.10;67.70;;;;;;5079146;28;20027;-78
2023/06/14 03:12:16;;;;;;;1.08;0.98;;;13.10;67.70;;;;;;5080584;28;20055;-77
2023/06/14 03:14:45;;;;;;;1.23;1.10;;;13.00;68.90;;;;;;5082865;28;20108;-77
2023/06/14 03:17:11;;;;;;;1.10;1.00;;;13.00;70.00;;;;;;5076816;28;20028;-77
2023/06/14 03:19:41;;;;;;;2.03;1.00;;;13.00;71.00;;;;;;5062937;28;20025;-77
2023/06/14 03:22:11;;;;;;;1.38;1.27;;;12.90;71.80;;;;;;5058123;28;20025;-77
2023/06/14 03:24:37;;;;;;;1.05;1.05;;;12.80;72.30;;;;;;5057666;28;20021;-76
2023/06/14 03:27:04;;;;;;;1.50;1.40;;;12.80;72.70;;;;;;5059782;28;20032;-77
2023/06/14 03:29:31;;;;;;;1.52;1.42;;;12.70;72.90;;;;;;5057391;28;20108;-77
2023/06/14 03:32:02;;;;;;;1.58;1.27;;;12.70;73.30;;;;;;5057908;28;20024;-78
2023/06/14 03:34:30;;;;;;;1.45;1.10;;;12.70;73.80;;;;;;5040168;28;20025;-77
2023/06/14 03:37:05;;;;;;;1.92;1.38;;;12.70;74.10;;;;;;5071849;28;20029;-77
2023/06/14 03:39:31;;;;;;;1.42;1.33;;;12.70;74.20;;;;;;5077209;28;20040;-77
2023/06/14 03:41:57;;;;;;;1.60;1.30;;;12.70;74.10;;;;;;5077229;28;20099;-78
2023/06/14 03:44:23;;;;;;;1.40;1.30;;;12.70;74.30;;;;;;5058574;28;20060;-77
2023/06/14 03:46:55;;;;;;;1.20;1.10;;;12.80;74.60;;;;;;5058849;28;20120;-79
2023/06/14 03:49:23;;;;;;;2.23;1.17;;;12.80;74.70;;;;;;5064094;28;20583;-79
2023/06/14 03:51:55;;;;;;;1.20;0.90;;;12.80;74.30;;;;;;5059118;28;20708;-78
2023/06/14 03:54:21;;;;;;;1.10;1.00;;;12.80;73.50;;;;;;5061264;28;20025;-77
2023/06/14 03:56:56;;;;;;;1.63;1.35;;;12.90;73.90;;;;;;5068804;28;20504;-79
2023/06/14 03:59:23;;;;;;;1.90;1.25;;;12.80;73.20;;;;;;5078224;28;20124;-78
2023/06/14 04:01:53;;;;;;;1.40;1.30;;;12.80;73.90;;;;;;5060116;28;20068;-78
2023/06/14 04:04:21;;;;;;;2.05;1.85;;;12.70;74.50;;;;;;5057510;28;20032;-78
2023/06/14 04:06:49;;;;;;;1.90;1.80;;;12.70;75.30;;;;;;5057535;28;20064;-78
2023/06/14 04:09:35;;;;;;;3.33;1.98;;;12.70;75.70;;;;;;5062846;28;20020;-78
2023/06/14 04:12:01;;;;;;;2.30;2.00;;;12.70;76.10;;;;;;5076348;28;20064;-77
2023/06/14 04:14:30;;;;;;;2.72;2.00;;;12.70;76.20;;;;;;5076213;28;20021;-78
2023/06/14 04:16:59;;;;;;;2.55;1.70;;;12.70;76.00;;;;;;5078858;28;20028;-78
2023/06/14 04:19:27;;;;;;;2.33;2.00;;;12.70;75.20;;;;;;5058374;28;20492;-78
2023/06/14 04:21:55;;;;;;;2.30;1.88;;;12.70;74.50;;;;;;5085819;28;20013;-77
2023/06/14 04:24:44;;;;;;;2.00;1.73;;;12.80;73.80;;;;;;5091213;28;20024;-77
2023/06/14 04:27:10;;;;;;;3.42;2.20;;;12.80;73.40;;;;;;5084863;28;20081;-78
2023/06/14 04:29:37;;;;;;;3.28;2.47;;;12.80;72.50;;;;;;5075276;28;20017;-78
2023/06/14 04:32:06;;;;;;;2.80;2.20;;;12.90;72.00;;;;;;5075646;28;20005;-78
2023/06/14 04:34:33;;;;;;;2.20;2.00;;;13.00;71.90;;;;;;5057425;28;20037;-78
2023/06/14 04:37:02;;;;;;;3.53;2.00;;;13.00;71.50;;;;;;5057462;28;20025;-77
2023/06/14 04:43:07;;;;;;;1.75;1.65;;;13.20;70.80;;;;;;5051696;28;20526;-78
2023/06/14 04:45:32;;;;;;;;;;;13.30;70.50;;;;;;5056398;28;20059;-77
2023/06/14 04:48:07;;;;;;;1.95;1.65;;;13.40;70.80;;;;;;5057931;28;20336;-77
2023/06/14 04:50:35;;;;;;;2.40;1.80;;;13.50;70.40;;;;;;5053940;28;20033;-76
2023/06/14 04:53:06;;;;;;;1.33;1.23;;;13.60;70.10;;;;;;5066345;28;20021;-76
2023/06/14 04:55:38;;;;;;;1.40;1.30;;;13.70;69.50;;;;;;5063054;28;20497;-77
2023/06/14 04:58:06;;;;;;;1.52;1.42;;;13.90;68.90;;;;;;5062209;28;20029;-77
2023/06/14 05:00:32;;;;;;;1.88;1.40;;;14.00;68.40;;;;;;5054117;28;20025;-78
2023/06/14 05:02:58;;;;;;;1.67;1.55;;;14.10;67.90;;;;;;5053941;28;20037;-77
2023/06/14 05:05:27;;;;;;;1.50;1.40;;;14.30;67.40;;;;;;5053019;28;20031;-77
2023/06/14 05:07:58;;;;;;;1.75;1.50;;;14.80;67.20;;;;;;5037478;28;20104;-78
2023/06/14 05:10:27;;;;;;;1.43;1.20;;;16.50;65.40;;;;;;5055463;28;20115;-78
2023/06/14 05:12:54;;;;;;;1.38;1.17;;;18.90;60.70;;;;;;5055452;28;20656;-78
2023/06/14 05:15:25;;;;;;;1.10;1.00;;;21.20;55.10;;;;;;5068268;28;20119;-78
2023/06/14 05:17:54;;;;;;;0.80;0.80;;;23.10;50.60;;;;;;5074183;28;20084;-77
2023/06/14 05:20:44;;;;;;;1.30;1.20;;;24.60;47.40;;;;;;5059187;28;20087;-78
2023/06/14 05:23:14;;;;;;;1.63;1.52;;;25.60;44.50;;;;;;5055991;28;20035;-78
2023/06/14 05:25:44;;;;;;;1.30;1.17;;;26.20;42.50;;;;;;5056843;28;20024;-77
2023/06/14 05:28:13;;;;;;;1.20;1.10;;;26.60;42.30;;;;;;5048041;28;20491;-77
2023/06/14 05:30:39;;;;;;;0.90;0.90;;;27.30;40.90;;;;;;5073617;28;20021;-78
2023/06/14 05:33:05;;;;;;;1.15;1.10;;;27.80;40.00;;;;;;5077871;28;20105;-77
2023/06/14 05:35:31;;;;;;;0.80;0.80;;;28.40;39.60;;;;;;5086618;28;20029;-78
2023/06/14 05:37:57;;;;;;;1.20;1.10;;;28.80;38.50;;;;;;5094367;28;20076;-78
2023/06/14 05:40:23;;;;;;;1.50;1.40;;;28.80;38.20;;;;;;5083677;28;20033;-77
2023/06/14 05:42:50;;;;;;;1.90;1.80;;;28.60;37.60;;;;;;5067402;28;20037;-77
2023/06/14 05:45:18;;;;;;;1.85;1.75;;;28.00;37.60;;;;;;5063914;28;20021;-76
2023/06/14 05:47:47;;;;;;;1.63;1.52;;;;;;;;;;5059434;28;20025;-78
2023/06/14 05:50:18;;;;;;;1.95;1.85;;;28.50;37.70;;;;;;5071170;28;20053;-77
2023/06/14 05:52:47;;;;;;;1.63;1.52;;;29.20;38.00;;;;;;5057457;28;20032;-77
2023/06/14 05:55:19;;;;;;;1.95;1.85;;;29.70;37.30;;;;;;5057483;28;20033;-77
2023/06/14 05:57:45;;;;;;;2.03;1.80;;;29.30;36.70;;;;;;5052409;28;20113;-77
2023/06/14 06:00:19;;;;;;;2.10;2.00;;;28.80;37.60;;;;;;5055538;28;20410;-78
2023/06/14 06:02:47;;;;;;;1.80;1.70;;;29.30;37.30;;;;;;5054801;28;20106;-77
2023/06/14 06:05:23;;;;;;;1.58;1.45;;;;;;;;;;5055020;28;20098;-77
2023/06/14 06:07:52;;;;;;;3.58;2.25;;;30.10;36.30;;;;;;5048065;28;20056;-77
2023/06/14 06:10:20;;;;;;;2.30;2.10;;;29.50;35.80;;;;;;5075524;28;20037;-78
2023/06/14 06:12:52;;;;;;;1.60;1.50;;;28.80;37.70;;;;;;5056378;28;20096;-78
2023/06/14 06:15:20;;;;;;;;;;;29.30;37.90;;;;;;5036518;28;20032;-77
2023/06/14 06:17:46;;;;;;;2.03;1.92;;;29.80;37.30;;;;;;5054055;28;19943;-77
2023/06/14 06:20:14;;;;;;;1.50;1.40;;;30.30;36.50;;;;;;5054348;28;20025;-77
2023/06/14 06:22:40;;;;;;;1.30;1.20;;;30.90;36.10;;;;;;5054419;28;20020;-78
2023/06/14 06:25:14;;;;;;;1.45;1.35;;;31.20;35.70;;;;;;5054552;28;20037;-78
2023/06/14 06:27:47;;;;;;;1.25;1.25;;;31.30;35.20;;;;;;5038917;28;20032;-78
2023/06/14 06:30:19;;;;;;;1.10;1.10;;;31.20;35.60;;;;;;5069871;28;20033;-76
2023/06/14 06:32:48;;;;;;;1.42;1.33;;;31.30;35.70;;;;;;5054640;28;20389;-77
2023/06/14 06:35:16;;;;;;;1.23;1.23;;;31.50;35.30;;;;;;5070307;28;20024;-76
2023/06/14 06:37:50;;;;;;;2.25;1.85;;;31.50;35.50;;;;;;5071250;28;20028;-77
2023/06/14 06:40:23;;;;;;;2.20;1.80;;;31.30;34.80;;;;;;5054982;28;20028;-77
2023/06/14 06:42:55;;;;;;;3.00;1.73;;;30.70;35.50;;;;;;5054344;28;20036;-77
2023/06/14 06:45:24;;;;;;;;;;;30.50;36.00;;;;;;5036057;28;20029;-77
2023/06/14 06:47:56;;;;;;;2.10;1.90;;;30.60;36.30;;;;;;5053663;28;19939;-77
2023/06/14 06:50:24;;;;;;;4.20;2.42;;;30.70;35.60;;;;;;5054429;28;20029;-78
2023/06/14 06:52:58;;;;;;;2.20;2.10;;;29.90;36.00;;;;;;5054031;28;20532;-77
2023/06/14 06:55:24;;;;;;;1.90;1.80;;;29.60;36.70;;;;;;5053227;28;20555;-77
2023/06/14 06:57:56;;;;;;;1.83;1.73;;;29.60;36.80;;;;;;5065246;28;20040;-77
2023/06/14 07:00:21;;;;;;;;;;;29.40;37.10;;;;;;5057060;28;20084;-76
2023/06/14 07:02:50;;;;;;;4.38;2.67;;;29.90;36.50;;;;;;5053821;28;19963;-79
2023/06/14 07:05:16;;;;;;;2.95;2.17;;;29.50;36.50;;;;;;5035963;28;20502;-77
2023/06/14 07:07:42;;;;;;;2.42;2.13;;;29.60;36.80;;;;;;5052199;28;20086;-77
2023/06/14 07:10:26;;;;;;;3.38;1.83;;;29.50;36.80;;;;;;5052455;28;20021;-77
2023/06/14 07:12:54;;;;;;;1.83;1.70;;;30.00;36.70;;;;;;5052610;28;20032;-77
2023/06/14 07:15:20;;;;;;;1.95;1.85;;;30.40;36.40;;;;;;5054905;28;20025;-76
2023/06/14 07:17:50;;;;;;;1.80;1.70;;;30.30;36.00;;;;;;5067719;28;20135;-78
2023/06/14 07:20:24;;;;;;;2.20;1.80;;;29.80;36.40;;;;;;5053877;28;20048;-77
2023/06/14 07:22:50;;;;;;;2.00;1.52;;;28.00;36.80;;;;;;5053237;28;20049;-77
2023/06/14 07:25:22;;;;;;;1.60;1.50;;;25.70;39.40;;;;;;5051916;28;20087;-77
2023/06/14 07:27:52;;;;;;;1.77;1.67;;;;;;;;;;5064008;28;20539;-77
2023/06/14 07:30:29;;;;;;;1.55;1.45;;;22.70;43.50;;;;;;5054032;28;20540;-78
2023/06/14 07:35:52;;;;;;;1.90;1.80;;;21.00;47.50;;;;;;5042042;28;20041;-76
2023/06/14 07:38:18;;;;;;;2.65;1.90;;;20.60;48.80;;;;;;5052466;28;20371;-77
2023/06/14 07:40:44;;;;;;;1.83;1.60;;;20.30;49.30;;;;;;5052539;28;20025;-78
2023/06/14 07:43:22;;;;;;;3.67;2.22;;;20.00;50.10;;;;;;5034701;28;20040;-76
2023/06/14 07:45:59;;;;;;;3.60;1.92;;;19.80;50.90;;;;;;5057694;28;20033;-77
2023/06/14 07:48:31;;;;;;;5.40;2.50;;;19.60;51.60;;;;;;5053959;28;20025;-77
2023/06/14 07:51:09;;;;;;;3.83;2.28;;;19.50;51.90;;;;;;5054162;28;20049;-77
2023/06/14 07:53:42;;;;;;;3.08;2.60;;;19.50;52.10;;;;;;5038897;28;20496;-76
2023/06/14 07:56:18;;;;;;;2.10;1.90;;;19.40;51.70;;;;;;5057361;28;20105;-77
2023/06/14 07:58:44;;;;;;;3.10;2.03;;;19.50;51.40;;;;;;5046374;28;20029;-77
2023/06/14 08:01:15;;;;;;;2.20;2.00;;;19.50;50.60;;;;;;5056763;28;20051;-77
2023/06/14 08:03:41;;;;;;;1.95;1.83;;;19.60;50.60;;;;;;5042492;28;20060;-78
2023/06/14 08:06:12;;;;;;;1.88;1.75;;;19.80;50.30;;;;;;5056809;28;20627;-77
2023/06/14 08:08:38;;;;;;;1.77;1.60;;;19.90;50.00;;;;;;5056566;28;20021;-77
2023/06/14 08:11:06;;;;;;;2.30;1.60;;;20.10;49.40;;;;;;5055918;28;20032;-76
2023/06/14 08:13:32;;;;;;;3.50;1.95;;;20.20;49.10;;;;;;5038450;28;20029;-77
2023/06/14 08:16:01;;;;;;;3.08;1.98;;;20.30;49.80;;;;;;5040264;28;20036;-77
2023/06/14 08:18:32;;;;;;;5.82;2.80;;;20.40;49.50;;;;;;5060386;28;20021;-77
2023/06/14 08:20:58;;;;;;;3.70;2.40;;;20.40;48.50;;;;;;5061991;28;20032;-77
2023/06/14 08:23:24;;;;;;;4.90;2.17;;;20.40;47.20;;;;;;5061381;28;20098;-78
2023/06/14 08:25:52;;;;;;;3.08;2.65;;;20.40;47.90;;;;;;5058145;28;20032;-77
2023/06/14 08:28:24;;;;;;;3.78;2.25;;;20.40;47.40;;;;;;5057078;28;20056;-76
2023/06/14 08:30:55;;;;;;;2.40;2.10;;;20.60;47.60;;;;;;5055933;28;20029;-77
2023/06/14 08:33:27;;;;;;;3.67;1.92;;;20.70;47.20;;;;;;5060554;28;20071;-77
2023/06/14 08:35:55;;;;;;;3.45;2.30;;;20.80;46.90;;;;;;5057464;28;20025;-76
2023/06/14 08:38:25;;;;;;;2.05;1.95;;;20.80;46.70;;;;;;5057646;28;20032;-77
2023/06/14 08:40:59;;;;;;;2.80;2.47;;;20.90;46.50;;;;;;5056749;28;20108;-77
2023/06/14 08:43:27;;;;;;;2.45;1.92;;;21.00;46.20;;;;;;5057377;28;20032;-76
2023/06/14 08:46:23;;;;;;;2.50;1.90;;;21.00;45.70;;;;;;5055365;28;20017;-76
2023/06/14 08:48:54;;;;;;;1.58;1.48;;;21.10;45.30;;;;;;5064251;28;20031;-78
2023/06/14 08:51:23;;;;;;;1.80;1.70;;;;;;;;;;5075431;28;20120;-78
2023/06/14 08:53:58;;;;;;;5.15;2.70;;;21.50;44.50;;;;;;5060001;28;20029;-77
2023/06/14 08:56:33;;;;;;;4.15;2.50;;;21.50;43.30;;;;;;5054163;28;20032;-77
2023/06/14 08:59:08;;;;;;;2.35;2.15;;;21.50;43.30;;;;;;5089570;28;20008;-76
2023/06/14 09:01:40;;;;;;;2.17;2.08;;;21.50;43.70;;;;;;5081884;28;20040;-75
2023/06/14 09:04:14;;;;;;;7.65;2.50;;;21.60;43.80;;;;;;5066662;28;20025;-76
2023/06/14 09:06:43;;;;;;;4.72;2.13;;;21.80;43.80;;;;;;5078294;28;20032;-77
2023/06/14 09:09:17;;;;;;;2.25;2.05;;;21.80;43.40;;;;;;5089874;28;20074;-77
2023/06/14 09:11:43;;;;;;;3.72;2.58;;;21.90;43.80;;;;;;5070152;28;20414;-77
2023/06/14 09:14:10;;;;;;;3.67;2.45;;;21.90;43.60;;;;;;5080019;28;20020;-77
2023/06/14 09:16:39;;;;;;;4.60;2.28;;;;;;;;;;5084972;28;20005;-78
2023/06/14 09:19:05;;;;;;;3.65;2.70;;;22.20;42.50;;;;;;5079389;28;20020;-77
2023/06/14 09:21:40;;;;;;;1.80;1.70;;;22.30;43.40;;;;;;5081394;28;20007;-78
2023/06/14 09:24:13;;;;;;;1.98;1.88;;;22.40;43.30;;;;;;5057927;28;20108;-77
2023/06/14 09:27:02;;;;;;;3.92;2.63;;;22.50;43.20;;;;;;5075910;28;20025;-76
2023/06/14 09:29:32;;;;;;;2.70;2.05;;;;;;;;;;5066768;28;20104;-77
2023/06/14 09:32:02;;;;;;;3.20;2.20;;;22.60;41.80;;;;;;5064535;28;20023;-76
2023/06/14 09:34:28;;;;;;;5.53;2.45;;;;;;;;;;5064189;28;20118;-77
2023/06/14 09:36:56;;;;;;;3.40;2.25;;;;;;;;;;5069613;28;20035;-77
2023/06/14 09:39:22;;;;;;;4.03;2.35;;;22.40;43.80;;;;;;5071427;28;20063;-78
2023/06/14 09:41:48;;;;;;;5.32;2.40;;;22.30;44.10;;;;;;5061790;28;20024;-78
2023/06/14 09:44:14;;;;;;;1.70;1.58;;;22.40;44.10;;;;;;5064547;28;20066;-77
2023/06/14 09:46:46;;;;;;;1.90;1.80;;;22.50;43.30;;;;;;5058518;28;20430;-76
2023/06/14 09:49:12;;;;;;;;;;;22.80;42.90;;;;;;5068030;28;20040;-76
2023/06/14 09:51:49;;;;;;;2.65;2.17;;;;;;;;;;5075658;28;20344;-78
2023/06/14 09:54:22;;;;;;;2.72;2.20;;;23.10;41.80;;;;;;5060892;28;20136;-77
2023/06/14 09:56:52;;;;;;;1.90;1.80;;;23.30;41.70;;;;;;5041503;28;20535;-77
2023/06/14 09:59:26;;;;;;;2.65;2.15;;;23.50;41.80;;;;;;5058663;28;20067;-77
2023/06/14 10:01:57;;;;;;;2.03;1.92;;;23.70;42.10;;;;;;5065044;28;20039;-77
2023/06/14 10:04:31;;;;;;;2.70;2.50;;;24.10;41.90;;;;;;5044291;28;20041;-77
2023/06/14 10:07:03;;;;;;;2.90;2.28;;;24.10;40.90;;;;;;5053297;28;20021;-77
2023/06/14 10:09:36;;;;;;;2.45;2.20;;;24.00;41.30;;;;;;5066838;28;20056;-77
2023/06/14 10:12:18;;;;;;;2.15;1.95;;;24.10;42.00;;;;;;5038403;28;20029;-76
2023/06/14 10:14:50;;;;;;;2.35;1.92;;;24.50;41.80;;;;;;5050335;28;20449;-77
2023/06/14 10:17:39;;;;;;;2.70;2.50;;;;;;;;;;5060617;28;20028;-76
2023/06/14 10:20:38;;;;;;;3.28;2.42;;;;;;;;;;5063783;28;20106;-77
2023/06/14 10:23:15;;;;;;;7.03;2.72;;;24.80;39.40;;;;;;4999831;28;20033;-77
2023/06/14 10:25:45;;;;;;;6.25;2.83;;;24.40;40.80;;;;;;5058172;28;20020;-78
2023/06/14 10:28:24;;;;;;;2.55;2.17;;;23.60;42.50;;;;;;5069455;28;20359;-77
2023/06/14 10:31:08;;;;;;;4.65;2.75;;;;;;;;;;5075097;28;20077;-77
2023/06/14 10:33:39;;;;;;;4.75;2.65;;;23.00;43.80;;;;;;5061664;28;20028;-77
2023/06/14 10:36:33;;;;;;;3.35;2.50;;;22.90;43.50;;;;;;5055147;28;20048;-77
2023/06/14 10:39:03;;;;;;;3.20;2.38;;;23.10;44.20;;;;;;5062487;28;20052;-77
2023/06/14 10:41:33;;;;;;;2.63;2.33;;;23.30;43.90;;;;;;5056747;28;20043;-77
2023/06/14 10:44:13;;;;;;;5.55;3.00;;;23.60;43.90;;;;;;5052703;28;20367;-77
2023/06/14 10:46:50;;;;;;;3.17;2.60;;;;;;;;;;5055137;28;20025;-77
2023/06/14 10:49:19;;;;;;;3.25;2.83;;;;;;;;;;5056074;28;20021;-78
2023/06/14 10:51:47;;;;;;;7.38;2.95;;;;;;;;;;5063174;28;20099;-77
2023/06/14 10:54:13;;;;;;;4.88;2.38;;;23.70;43.20;;;;;;5065907;28;20033;-77
2023/06/14 10:56:48;;;;;;;4.50;3.25;;;;;;;;;;5069844;28;20060;-78
2023/06/14 10:59:23;;;;;;;3.17;2.58;;;23.80;43.00;;;;;;5077782;28;20114;-77
2023/06/14 11:02:08;;;;;;;2.42;2.22;;;23.70;43.30;;;;;;5068420;28;20111;-77
2023/06/14 11:04:56;;;;;;;2.83;2.63;;;;;;;;;;5058606;28;20033;-78
2023/06/14 11:07:58;;;;;;;7.22;3.38;;;22.80;43.90;;;;;;5075752;28;20047;-78
2023/06/14 11:10:41;;;;;;;2.70;2.30;;;22.90;45.10;;;;;;5057026;28;20017;-77
2023/06/14 11:13:07;;;;;;;2.53;2.30;;;23.30;44.40;;;;;;5062338;28;20024;-78
2023/06/14 11:15:47;;;;;;;2.92;2.08;;;23.80;43.90;;;;;;5071014;28;20116;-76
2023/06/14 11:18:24;;;;;;;3.08;2.63;;;24.00;43.00;;;;;;5067607;28;20093;-77
2023/06/14 11:20:50;;;;;;;2.67;2.30;;;24.10;41.30;;;;;;5074124;28;20029;-77
2023/06/14 11:23:27;;;;;;;4.22;3.05;;;;;;;;;;5066137;28;20466;-77
2023/06/14 11:26:01;;;;;;;2.72;2.47;;;24.20;39.30;;;;;;5064556;28;20048;-78
2023/06/14 11:28:40;;;;;;;2.20;2.05;;;24.10;40.80;;;;;;5066527;28;20040;-77
2023/06/14 11:31:06;;;;;;;2.78;2.55;;;24.50;41.70;;;;;;5068887;28;20021;-79
2023/06/14 11:33:35;;;;;;;2.95;2.38;;;24.60;40.30;;;;;;5075008;28;20249;-77
2023/06/14 11:36:08;;;;;;;2.50;2.30;;;24.80;40.30;;;;;;5062798;28;20028;-78
2023/06/14 11:38:37;;;;;;;1.98;1.77;;;25.10;39.50;;;;;;5067545;28;20044;-77
2023/06/14 11:41:07;;;;;;;4.93;2.40;;;25.30;39.30;;;;;;5085929;28;20058;-78
2023/06/14 11:43:35;;;;;;;4.43;2.70;;;25.50;38.90;;;;;;5071080;28;20124;-77
2023/06/14 11:46:14;;;;;;;3.92;2.70;;;25.50;37.80;;;;;;5068790;28;20487;-77
2023/06/14 11:48:43;;;;;;;3.47;2.60;;;25.20;38.10;;;;;;5041950;28;20036;-77
2023/06/14 11:51:23;;;;;;;2.72;2.45;;;25.20;38.50;;;;;;5058305;28;20017;-79
2023/06/14 11:53:56;;;;;;;2.55;2.17;;;25.20;37.70;;;;;;5058865;28;20032;-79
2023/06/14 11:56:27;;;;;;;4.03;2.45;;;24.60;38.70;;;;;;5044071;28;20039;-77
2023/06/14 11:58:57;;;;;;;3.05;2.50;;;24.00;39.50;;;;;;5077408;28;20044;-77
2023/06/14 12:01:23;;;;;;;3.30;2.45;;;;;;;;;;5060561;28;20029;-77
2023/06/14 12:03:55;;;;;;;3.00;2.47;;;23.90;39.10;;;;;;5071030;28;20025;-78
2023/06/14 12:06:33;;;;;;;4.70;3.03;;;24.20;39.00;;;;;;5062685;28;20107;-80
2023/06/14 12:09:01;;;;;;;5.75;2.72;;;;;;;;;;5059560;28;20021;-78
2023/06/14 12:11:53;;;;;;;2.72;2.53;;;;;;;;;;5064864;28;20052;-79
2023/06/14 12:14:20;;;;;;;3.00;2.80;;;24.70;38.00;;;;;;5053114;28;20028;-77
2023/06/14 12:17:11;;;;;;;3.50;2.63;;;24.90;38.30;;;;;;5060137;28;20100;-77
2023/06/14 12:20:02;;;;;;;2.58;2.38;;;25.00;37.80;;;;;;5057832;28;20464;-79
2023/06/14 12:22:33;;;;;;;2.22;2.03;;;25.20;38.20;;;;;;5057839;28;20433;-78
2023/06/14 12:25:09;;;;;;;2.65;2.42;;;25.70;38.10;;;;;;5057383;28;20029;-78
2023/06/14 12:27:36;;;;;;;4.50;2.28;;;25.80;37.10;;;;;;5058539;28;20025;-78
2023/06/14 12:30:07;;;;;;;2.20;2.03;;;25.80;36.90;;;;;;5041592;28;20025;-78
2023/06/14 12:32:41;;;;;;;3.00;2.70;;;25.80;37.20;;;;;;5059218;28;20025;-78
2023/06/14 12:35:07;;;;;;;3.20;2.63;;;;;;;;;;5056904;28;20029;-78
2023/06/14 12:37:43;;;;;;;3.45;2.40;;;25.20;37.00;;;;;;5057712;28;20025;-78
2023/06/14 12:40:16;;;;;;;3.90;2.33;;;25.30;37.90;;;;;;5058129;28;20090;-77
2023/06/14 12:42:42;;;;;;;2.20;2.00;;;25.30;38.30;;;;;;5070322;28;20084;-78
2023/06/14 12:45:14;;;;;;;2.35;2.22;;;25.70;38.20;;;;;;5064252;28;20051;-78
2023/06/14 12:47:47;;;;;;;4.55;2.42;;;25.90;38.00;;;;;;5058214;28;20029;-78
2023/06/14 12:50:13;;;;;;;5.47;2.70;;;26.00;37.70;;;;;;5058689;28;20029;-78
2023/06/14 12:52:41;;;;;;;2.55;2.25;;;25.80;37.70;;;;;;5057039;28;20048;-78
2023/06/14 12:55:20;;;;;;;2.47;2.10;;;25.80;38.20;;;;;;5055830;28;20458;-78
2023/06/14 12:57:57;;;;;;;3.50;2.60;;;;;;;;;;5057973;28;20440;-78
2023/06/14 13:00:25;;;;;;;3.28;2.97;;;;;;;;;;5061238;28;20063;-79
2023/06/14 13:02:52;;;;;;;4.55;3.10;;;25.70;36.60;;;;;;5063192;28;20082;-78
2023/06/14 13:05:20;;;;;;;2.25;2.10;;;25.40;37.90;;;;;;5043490;28;20029;-80
2023/06/14 13:07:48;;;;;;;2.42;2.22;;;25.30;37.90;;;;;;5059688;28;20100;-80
2023/06/14 13:10:14;;;;;;;4.72;2.95;;;25.40;37.90;;;;;;5080424;28;20052;-80
2023/06/14 13:12:40;;;;;;;3.63;2.70;;;25.60;37.60;;;;;;5062326;28;20072;-80
2023/06/14 13:15:07;;;;;;;2.63;2.42;;;25.70;37.50;;;;;;5074377;28;20024;-80
2023/06/14 13:17:39;;;;;;;2.85;2.53;;;25.90;37.20;;;;;;5094061;28;20017;-79
2023/06/14 13:20:09;;;;;;;3.63;2.60;;;26.00;36.90;;;;;;5089532;28;20033;-81
2023/06/14 13:22:35;;;;;;;2.92;2.70;;;26.20;36.40;;;;;;5081166;28;20087;-81
2023/06/14 13:25:04;;;;;;;2.75;2.55;;;26.40;36.40;;;;;;5078667;28;20124;-81